createdAt,value
2023-01-15T00:00:05.000Z,182
2023-01-15T00:01:22.000Z,172
2023-01-15T00:02:38.000Z,183
2023-01-15T00:03:54.000Z,192
2023-01-15T00:05:09.000Z,199
2023-01-15T00:06:25.000Z,199
2023-01-15T00:07:42.000Z,191
2023-01-15T00:08:58.000Z,193
2023-01-15T00:10:14.000Z,190
2023-01-15T00:11:30.000Z,194
2023-01-15T00:12:47.000Z,193
2023-01-15T00:14:03.000Z,192
2023-01-15T00:15:19.000Z,184
2023-01-15T00:16:35.000Z,179
2023-01-15T00:17:52.000Z,180
2023-01-15T00:19:08.000Z,180
2023-01-15T00:20:24.000Z,178
2023-01-15T00:21:39.000Z,176
2023-01-15T00:22:56.000Z,181
2023-01-15T00:24:11.000Z,179
2023-01-15T00:25:26.000Z,175
2023-01-15T00:26:41.000Z,172
2023-01-15T00:27:57.000Z,178
2023-01-15T00:29:13.000Z,181
2023-01-15T00:30:29.000Z,185
2023-01-15T00:31:45.000Z,184
2023-01-15T00:33:02.000Z,181
2023-01-15T00:34:18.000Z,180
2023-01-15T00:35:34.000Z,183
2023-01-15T00:36:50.000Z,179
2023-01-15T00:38:06.000Z,185
2023-01-15T00:39:23.000Z,184
2023-01-15T00:40:39.000Z,177
2023-01-15T00:41:55.000Z,181
2023-01-15T00:43:11.000Z,176
2023-01-15T00:44:27.000Z,178
2023-01-15T00:45:43.000Z,179
2023-01-15T00:46:59.000Z,178
2023-01-15T00:48:15.000Z,179
2023-01-15T00:49:32.000Z,183
2023-01-15T00:50:48.000Z,182
2023-01-15T00:52:04.000Z,181
2023-01-15T00:53:20.000Z,185
2023-01-15T00:54:37.000Z,185
2023-01-15T00:55:53.000Z,185
2023-01-15T00:57:09.000Z,183
2023-01-15T00:58:25.000Z,179
2023-01-15T00:59:41.000Z,182
2023-01-15T01:00:57.000Z,184
2023-01-15T01:02:13.000Z,185
2023-01-15T01:03:29.000Z,182
2023-01-15T01:04:45.000Z,181
2023-01-15T01:06:02.000Z,180
2023-01-15T01:07:18.000Z,179
2023-01-15T01:08:34.000Z,178
2023-01-15T01:09:50.000Z,181
2023-01-15T01:11:07.000Z,184
2023-01-15T01:12:23.000Z,179
2023-01-15T01:13:39.000Z,180
2023-01-15T01:14:55.000Z,185
2023-01-15T01:16:12.000Z,184
2023-01-15T01:17:27.000Z,178
2023-01-15T01:18:43.000Z,181
2023-01-15T01:19:59.000Z,185
2023-01-15T01:21:15.000Z,184
2023-01-15T01:22:32.000Z,179
2023-01-15T01:23:48.000Z,180
2023-01-15T01:25:04.000Z,185
2023-01-15T01:26:20.000Z,185
2023-01-15T01:27:37.000Z,185
2023-01-15T01:28:53.000Z,185
2023-01-15T01:30:09.000Z,185
2023-01-15T01:31:25.000Z,178
2023-01-15T01:32:42.000Z,184
2023-01-15T01:33:57.000Z,181
2023-01-15T01:35:13.000Z,185
2023-01-15T01:36:29.000Z,183
2023-01-15T01:37:46.000Z,180
2023-01-15T01:39:02.000Z,185
2023-01-15T01:40:18.000Z,186
2023-01-15T01:41:34.000Z,181
2023-01-15T01:42:50.000Z,178
2023-01-15T01:44:07.000Z,182
2023-01-15T01:45:23.000Z,185
2023-01-15T01:46:39.000Z,180
2023-01-15T01:47:55.000Z,181
2023-01-15T01:49:12.000Z,184
2023-01-15T01:50:27.000Z,181
2023-01-15T01:51:43.000Z,186
2023-01-15T01:52:59.000Z,184
2023-01-15T01:54:15.000Z,181
2023-01-15T01:55:31.000Z,181
2023-01-15T01:56:47.000Z,185
2023-01-15T01:58:03.000Z,185
2023-01-15T01:59:20.000Z,185
2023-01-15T02:00:36.000Z,185
2023-01-15T02:01:52.000Z,181
2023-01-15T02:03:08.000Z,185
2023-01-15T02:04:24.000Z,185
2023-01-15T02:05:41.000Z,185
2023-01-15T02:06:57.000Z,184
2023-01-15T02:08:13.000Z,179
2023-01-15T02:09:29.000Z,179
2023-01-15T02:10:45.000Z,180
2023-01-15T02:12:01.000Z,181
2023-01-15T02:13:17.000Z,185
2023-01-15T02:14:33.000Z,183
2023-01-15T02:15:50.000Z,180
2023-01-15T02:17:06.000Z,183
2023-01-15T02:18:22.000Z,186
2023-01-15T02:19:38.000Z,185
2023-01-15T02:20:55.000Z,183
2023-01-15T02:22:11.000Z,182
2023-01-15T02:23:27.000Z,185
2023-01-15T02:24:43.000Z,185
2023-01-15T02:25:59.000Z,185
2023-01-15T02:27:15.000Z,185
2023-01-15T02:28:31.000Z,185
2023-01-15T02:29:47.000Z,185
2023-01-15T02:31:03.000Z,186
2023-01-15T02:32:20.000Z,183
2023-01-15T02:33:36.000Z,184
2023-01-15T02:34:52.000Z,181
2023-01-15T02:36:08.000Z,181
2023-01-15T02:37:25.000Z,186
2023-01-15T02:38:41.000Z,184
2023-01-15T02:39:57.000Z,181
2023-01-15T02:41:13.000Z,185
2023-01-15T02:42:29.000Z,185
2023-01-15T02:43:45.000Z,184
2023-01-15T02:45:01.000Z,181
2023-01-15T02:46:17.000Z,184
2023-01-15T02:47:33.000Z,179
2023-01-15T02:48:50.000Z,180
2023-01-15T02:50:06.000Z,183
2023-01-15T02:51:22.000Z,180
2023-01-15T02:52:38.000Z,183
2023-01-15T02:53:55.000Z,184
2023-01-15T02:55:11.000Z,185
2023-01-15T02:56:26.000Z,185
2023-01-15T02:57:41.000Z,186
2023-01-15T02:58:58.000Z,184
2023-01-15T03:00:13.000Z,180
2023-01-15T03:01:28.000Z,180
2023-01-15T03:02:44.000Z,182
2023-01-15T03:04:01.000Z,185
2023-01-15T03:05:17.000Z,185
2023-01-15T03:06:33.000Z,184
2023-01-15T03:07:49.000Z,178
2023-01-15T03:09:06.000Z,181
2023-01-15T03:10:22.000Z,178
2023-01-15T03:11:38.000Z,182
2023-01-15T03:12:54.000Z,181
2023-01-15T03:14:10.000Z,185
2023-01-15T03:15:27.000Z,184
2023-01-15T03:16:43.000Z,182
2023-01-15T03:17:58.000Z,185
2023-01-15T03:19:14.000Z,186
2023-01-15T03:20:31.000Z,183
2023-01-15T03:21:47.000Z,182
2023-01-15T03:23:03.000Z,185
2023-01-15T03:24:19.000Z,184
2023-01-15T03:25:36.000Z,183
2023-01-15T03:26:51.000Z,185
2023-01-15T03:28:06.000Z,185
2023-01-15T03:29:21.000Z,183
2023-01-15T03:30:37.000Z,187
2023-01-15T03:31:53.000Z,184
2023-01-15T03:33:09.000Z,184
2023-01-15T03:34:25.000Z,184
2023-01-15T03:35:42.000Z,182
2023-01-15T03:36:58.000Z,186
2023-01-15T03:38:14.000Z,185
2023-01-15T03:39:30.000Z,182
2023-01-15T03:40:46.000Z,185
2023-01-15T03:42:03.000Z,178
2023-01-15T03:43:19.000Z,182
2023-01-15T03:44:35.000Z,186
2023-01-15T03:45:51.000Z,186
2023-01-15T03:47:07.000Z,185
2023-01-15T03:48:23.000Z,183
2023-01-15T03:49:39.000Z,186
2023-01-15T03:50:55.000Z,186
2023-01-15T03:52:12.000Z,185
2023-01-15T03:53:28.000Z,186
2023-01-15T03:54:44.000Z,186
2023-01-15T03:55:59.000Z,187
2023-01-15T03:57:15.000Z,184
2023-01-15T03:58:30.000Z,185
2023-01-15T03:59:45.000Z,186
2023-01-15T04:01:01.000Z,184
2023-01-15T04:02:18.000Z,182
2023-01-15T04:03:34.000Z,180
2023-01-15T04:04:50.000Z,179
2023-01-15T04:06:06.000Z,180
2023-01-15T04:07:22.000Z,185
2023-01-15T04:08:39.000Z,183
2023-01-15T04:09:55.000Z,185
2023-01-15T04:11:11.000Z,180
2023-01-15T04:12:27.000Z,182
2023-01-15T04:13:44.000Z,185
2023-01-15T04:15:00.000Z,181
2023-01-15T04:16:15.000Z,186
2023-01-15T04:17:31.000Z,184
2023-01-15T04:18:48.000Z,180
2023-01-15T04:20:04.000Z,180
2023-01-15T04:21:20.000Z,181
2023-01-15T04:22:36.000Z,185
2023-01-15T04:23:53.000Z,186
2023-01-15T04:25:08.000Z,186
2023-01-15T04:26:23.000Z,185
2023-01-15T04:27:38.000Z,181
2023-01-15T04:28:54.000Z,181
2023-01-15T04:30:10.000Z,180
2023-01-15T04:31:26.000Z,180
2023-01-15T04:32:42.000Z,181
2023-01-15T04:33:59.000Z,179
2023-01-15T04:35:15.000Z,180
2023-01-15T04:36:31.000Z,179
2023-01-15T04:37:47.000Z,181
2023-01-15T04:39:03.000Z,185
2023-01-15T04:40:20.000Z,185
2023-01-15T04:41:36.000Z,186
2023-01-15T04:42:52.000Z,184
2023-01-15T04:44:08.000Z,182
2023-01-15T04:45:24.000Z,185
2023-01-15T04:46:40.000Z,184
2023-01-15T04:47:56.000Z,181
2023-01-15T04:49:12.000Z,184
2023-01-15T04:50:29.000Z,180
2023-01-15T04:51:45.000Z,185
2023-01-15T04:53:01.000Z,181
2023-01-15T04:54:16.000Z,182
2023-01-15T04:55:32.000Z,185
2023-01-15T04:56:48.000Z,185
2023-01-15T04:58:03.000Z,185
2023-01-15T04:59:18.000Z,186
2023-01-15T05:00:35.000Z,184
2023-01-15T05:01:51.000Z,180
2023-01-15T05:03:07.000Z,184
2023-01-15T05:04:23.000Z,180
2023-01-15T05:05:39.000Z,184
2023-01-15T05:06:56.000Z,178
2023-01-15T05:08:12.000Z,180
2023-01-15T05:09:28.000Z,185
2023-01-15T05:10:44.000Z,185
2023-01-15T05:12:01.000Z,184
2023-01-15T05:13:17.000Z,185
2023-01-15T05:14:33.000Z,186
2023-01-15T05:15:48.000Z,185
2023-01-15T05:17:05.000Z,185
2023-01-15T05:18:21.000Z,184
2023-01-15T05:19:37.000Z,181
2023-01-15T05:20:53.000Z,184
2023-01-15T05:22:10.000Z,182
2023-01-15T05:23:26.000Z,184
2023-01-15T05:24:41.000Z,183
2023-01-15T05:25:56.000Z,183
2023-01-15T05:27:13.000Z,181
2023-01-15T05:28:28.000Z,181
2023-01-15T05:29:44.000Z,183
2023-01-15T05:31:00.000Z,182
2023-01-15T05:32:17.000Z,184
2023-01-15T05:33:33.000Z,185
2023-01-15T05:34:49.000Z,186
2023-01-15T05:36:05.000Z,185
2023-01-15T05:37:22.000Z,185
2023-01-15T05:38:38.000Z,183
2023-01-15T05:39:54.000Z,183
2023-01-15T05:41:10.000Z,181
2023-01-15T05:42:26.000Z,183
2023-01-15T05:43:43.000Z,181
2023-01-15T05:44:58.000Z,181
2023-01-15T05:46:14.000Z,182
2023-01-15T05:47:30.000Z,185
2023-01-15T05:48:47.000Z,185
2023-01-15T05:50:03.000Z,185
2023-01-15T05:51:19.000Z,185
2023-01-15T05:52:35.000Z,185
2023-01-15T05:53:51.000Z,184
2023-01-15T05:55:06.000Z,182
2023-01-15T05:56:22.000Z,186
2023-01-15T05:57:37.000Z,185
2023-01-15T05:58:53.000Z,184
2023-01-15T06:00:09.000Z,180
2023-01-15T06:01:25.000Z,181
2023-01-15T06:02:41.000Z,181
2023-01-15T06:03:58.000Z,185
2023-01-15T06:05:14.000Z,186
2023-01-15T06:06:30.000Z,184
2023-01-15T06:07:46.000Z,186
2023-01-15T06:09:02.000Z,185
2023-01-15T06:10:18.000Z,186
2023-01-15T06:11:34.000Z,186
2023-01-15T06:12:50.000Z,187
2023-01-15T06:14:06.000Z,185
2023-01-15T06:15:23.000Z,182
2023-01-15T06:16:39.000Z,185
2023-01-15T06:17:55.000Z,186
2023-01-15T06:19:11.000Z,187
2023-01-15T06:20:28.000Z,180
2023-01-15T06:21:44.000Z,181
2023-01-15T06:23:00.000Z,182
2023-01-15T06:24:15.000Z,186
2023-01-15T06:25:31.000Z,182
2023-01-15T06:26:47.000Z,187
2023-01-15T06:28:02.000Z,186
2023-01-15T06:29:17.000Z,185
2023-01-15T06:30:34.000Z,187
2023-01-15T06:31:50.000Z,186
2023-01-15T06:33:06.000Z,186
2023-01-15T06:34:22.000Z,183
2023-01-15T06:35:39.000Z,186
2023-01-15T06:36:55.000Z,185
2023-01-15T06:38:11.000Z,188
2023-01-15T06:39:27.000Z,187
2023-01-15T06:40:43.000Z,190
2023-01-15T06:42:00.000Z,187
2023-01-15T06:43:16.000Z,193
2023-01-15T06:44:32.000Z,193
2023-01-15T06:45:47.000Z,192
2023-01-15T06:47:04.000Z,193
2023-01-15T06:48:20.000Z,193
2023-01-15T06:49:36.000Z,190
2023-01-15T06:50:52.000Z,188
2023-01-15T06:52:09.000Z,192
2023-01-15T06:53:25.000Z,190
2023-01-15T06:54:40.000Z,194
2023-01-15T06:55:55.000Z,194
2023-01-15T06:57:12.000Z,191
2023-01-15T06:58:27.000Z,187
2023-01-15T06:59:42.000Z,186
2023-01-15T07:00:58.000Z,186
2023-01-15T07:02:15.000Z,187
2023-01-15T07:03:31.000Z,194
2023-01-15T07:04:47.000Z,191
2023-01-15T07:06:03.000Z,188
2023-01-15T07:07:19.000Z,191
2023-01-15T07:08:36.000Z,192
2023-01-15T07:09:52.000Z,197
2023-01-15T07:11:08.000Z,196
2023-01-15T07:12:24.000Z,202
2023-01-15T07:13:41.000Z,204
2023-01-15T07:14:57.000Z,206
2023-01-15T07:16:12.000Z,207
2023-01-15T07:17:28.000Z,213
2023-01-15T07:18:45.000Z,219
2023-01-15T07:20:01.000Z,171
2023-01-15T07:21:17.000Z,36
2023-01-15T07:22:33.000Z,40
2023-01-15T07:23:50.000Z,48
2023-01-15T07:25:05.000Z,58
2023-01-15T07:26:20.000Z,64
2023-01-15T07:27:36.000Z,69
2023-01-15T07:28:53.000Z,78
2023-01-15T07:30:09.000Z,88
2023-01-15T07:31:25.000Z,100
2023-01-15T07:32:41.000Z,110
2023-01-15T07:33:57.000Z,120
2023-01-15T07:35:14.000Z,133
2023-01-15T07:36:30.000Z,141
2023-01-15T07:37:46.000Z,153
2023-01-15T07:39:02.000Z,166
2023-01-15T07:40:19.000Z,178
2023-01-15T07:41:35.000Z,193
2023-01-15T07:42:50.000Z,211
2023-01-15T07:44:06.000Z,232
2023-01-15T07:45:23.000Z,262
2023-01-15T07:46:39.000Z,301
2023-01-15T07:47:55.000Z,340
2023-01-15T07:49:11.000Z,373
2023-01-15T07:50:28.000Z,397
2023-01-15T07:51:43.000Z,434
2023-01-15T07:52:58.000Z,473
2023-01-15T07:54:13.000Z,516
2023-01-15T07:55:29.000Z,553
2023-01-15T07:56:45.000Z,571
2023-01-15T07:58:01.000Z,587
2023-01-15T07:59:17.000Z,593
2023-01-15T08:00:33.000Z,590
2023-01-15T08:01:50.000Z,590
2023-01-15T08:03:06.000Z,593
2023-01-15T08:04:22.000Z,579
2023-01-15T08:05:38.000Z,544
2023-01-15T08:06:55.000Z,504
2023-01-15T08:08:11.000Z,466
2023-01-15T08:09:27.000Z,376
2023-01-15T08:10:43.000Z,228
2023-01-15T08:11:59.000Z,136
2023-01-15T08:13:15.000Z,142
2023-01-15T08:14:31.000Z,492
2023-01-15T08:15:47.000Z,584
2023-01-15T08:17:04.000Z,695
2023-01-15T08:18:20.000Z,795
2023-01-15T08:19:36.000Z,899
2023-01-15T08:20:51.000Z,896
2023-01-15T08:22:07.000Z,867
2023-01-15T08:23:22.000Z,890
2023-01-15T08:24:37.000Z,933
2023-01-15T08:25:53.000Z,905
2023-01-15T08:27:10.000Z,888
2023-01-15T08:28:26.000Z,892
2023-01-15T08:29:42.000Z,885
2023-01-15T08:30:58.000Z,878
2023-01-15T08:32:14.000Z,884
2023-01-15T08:33:31.000Z,960
2023-01-15T08:34:47.000Z,1085
2023-01-15T08:36:03.000Z,1145
2023-01-15T08:37:19.000Z,1202
2023-01-15T08:38:36.000Z,1232
2023-01-15T08:39:52.000Z,1226
2023-01-15T08:41:07.000Z,1217
2023-01-15T08:42:23.000Z,1251
2023-01-15T08:43:40.000Z,1270
2023-01-15T08:44:56.000Z,1273
2023-01-15T08:46:12.000Z,1313
2023-01-15T08:47:28.000Z,1290
2023-01-15T08:48:44.000Z,1266
2023-01-15T08:50:00.000Z,1311
2023-01-15T08:51:15.000Z,1365
2023-01-15T08:52:31.000Z,1348
2023-01-15T08:53:47.000Z,1309
2023-01-15T08:55:04.000Z,1226
2023-01-15T08:56:20.000Z,1266
2023-01-15T08:57:36.000Z,1295
2023-01-15T08:58:52.000Z,1243
2023-01-15T09:00:09.000Z,1244
2023-01-15T09:01:25.000Z,1267
2023-01-15T09:02:41.000Z,1157
2023-01-15T09:03:57.000Z,1067
2023-01-15T09:05:14.000Z,1072
2023-01-15T09:06:30.000Z,1111
2023-01-15T09:07:45.000Z,1112
2023-01-15T09:09:01.000Z,1155
2023-01-15T09:10:18.000Z,1221
2023-01-15T09:11:34.000Z,1308
2023-01-15T09:12:50.000Z,1330
2023-01-15T09:14:06.000Z,1384
2023-01-15T09:15:22.000Z,1413
2023-01-15T09:16:38.000Z,1473
2023-01-15T09:17:53.000Z,1591
2023-01-15T09:19:08.000Z,1607
2023-01-15T09:20:24.000Z,2235
2023-01-15T09:21:40.000Z,3038
2023-01-15T09:22:56.000Z,2264
2023-01-15T09:24:11.000Z,3003
2023-01-15T09:25:26.000Z,3219
2023-01-15T09:26:43.000Z,3458
2023-01-15T09:27:59.000Z,2983
2023-01-15T09:29:15.000Z,3020
2023-01-15T09:30:31.000Z,3356
2023-01-15T09:31:48.000Z,3631
2023-01-15T09:33:04.000Z,3159
2023-01-15T09:34:20.000Z,3112
2023-01-15T09:35:36.000Z,4322
2023-01-15T09:36:53.000Z,2984
2023-01-15T09:38:09.000Z,4466
2023-01-15T09:39:25.000Z,3581
2023-01-15T09:40:41.000Z,2655
2023-01-15T09:41:57.000Z,2698
2023-01-15T09:43:13.000Z,3637
2023-01-15T09:44:29.000Z,4045
2023-01-15T09:45:45.000Z,3310
2023-01-15T09:47:01.000Z,3005
2023-01-15T09:48:18.000Z,2937
2023-01-15T09:49:34.000Z,2830
2023-01-15T09:50:49.000Z,3043
2023-01-15T09:52:04.000Z,3196
2023-01-15T09:53:20.000Z,3244
2023-01-15T09:54:35.000Z,3436
2023-01-15T09:55:51.000Z,3084
2023-01-15T09:57:07.000Z,2858
2023-01-15T09:58:24.000Z,3344
2023-01-15T09:59:40.000Z,3240
2023-01-15T10:00:56.000Z,3119
2023-01-15T10:02:12.000Z,2820
2023-01-15T10:03:29.000Z,2873
2023-01-15T10:04:45.000Z,2508
2023-01-15T10:06:01.000Z,3868
2023-01-15T10:07:17.000Z,3739
2023-01-15T10:08:34.000Z,5135
2023-01-15T10:09:50.000Z,5337
2023-01-15T10:11:05.000Z,4521
2023-01-15T10:12:21.000Z,3174
2023-01-15T10:13:38.000Z,5026
2023-01-15T10:14:54.000Z,2644
2023-01-15T10:16:10.000Z,4513
2023-01-15T10:17:26.000Z,5508
2023-01-15T10:18:42.000Z,2852
2023-01-15T10:19:58.000Z,4557
2023-01-15T10:21:13.000Z,5596
2023-01-15T10:22:29.000Z,3840
2023-01-15T10:23:44.000Z,2638
2023-01-15T10:25:00.000Z,3088
2023-01-15T10:26:16.000Z,2785
2023-01-15T10:27:32.000Z,2863
2023-01-15T10:28:48.000Z,3045
2023-01-15T10:30:05.000Z,3399
2023-01-15T10:31:21.000Z,3589
2023-01-15T10:32:37.000Z,3789
2023-01-15T10:33:53.000Z,3271
2023-01-15T10:35:10.000Z,2760
2023-01-15T10:36:26.000Z,3243
2023-01-15T10:37:42.000Z,5491
2023-01-15T10:38:58.000Z,4003
2023-01-15T10:40:15.000Z,2678
2023-01-15T10:41:30.000Z,3493
2023-01-15T10:42:46.000Z,3299
2023-01-15T10:44:02.000Z,5192
2023-01-15T10:45:18.000Z,4603
2023-01-15T10:46:35.000Z,4016
2023-01-15T10:47:51.000Z,4635
2023-01-15T10:49:07.000Z,4825
2023-01-15T10:50:22.000Z,4341
2023-01-15T10:51:38.000Z,3826
2023-01-15T10:52:54.000Z,4062
2023-01-15T10:54:09.000Z,3856
2023-01-15T10:55:24.000Z,3750
2023-01-15T10:56:41.000Z,2516
2023-01-15T10:57:57.000Z,4079
2023-01-15T10:59:13.000Z,4650
2023-01-15T11:00:29.000Z,4686
2023-01-15T11:01:46.000Z,3648
2023-01-15T11:03:02.000Z,4114
2023-01-15T11:04:18.000Z,3010
2023-01-15T11:05:34.000Z,5972
2023-01-15T11:06:51.000Z,4608
2023-01-15T11:08:07.000Z,4313
2023-01-15T11:09:23.000Z,3803
2023-01-15T11:10:39.000Z,4165
2023-01-15T11:11:54.000Z,4425
2023-01-15T11:13:11.000Z,4253
2023-01-15T11:14:27.000Z,4054
2023-01-15T11:15:43.000Z,3121
2023-01-15T11:16:59.000Z,4718
2023-01-15T11:18:16.000Z,3554
2023-01-15T11:19:32.000Z,3881
2023-01-15T11:20:47.000Z,4762
2023-01-15T11:22:02.000Z,4114
2023-01-15T11:23:19.000Z,2594
2023-01-15T11:24:34.000Z,3553
2023-01-15T11:25:49.000Z,4016
2023-01-15T11:27:05.000Z,4646
2023-01-15T11:28:22.000Z,3831
2023-01-15T11:29:38.000Z,1867
2023-01-15T11:30:54.000Z,4031
2023-01-15T11:32:10.000Z,3689
2023-01-15T11:33:27.000Z,3289
2023-01-15T11:34:43.000Z,3036
2023-01-15T11:35:59.000Z,3612
2023-01-15T11:37:15.000Z,3647
2023-01-15T11:38:31.000Z,4267
2023-01-15T11:39:48.000Z,4641
2023-01-15T11:41:04.000Z,4048
2023-01-15T11:42:19.000Z,3467
2023-01-15T11:43:35.000Z,2727
2023-01-15T11:44:52.000Z,4048
2023-01-15T11:46:08.000Z,3941
2023-01-15T11:47:24.000Z,5822
2023-01-15T11:48:40.000Z,4089
2023-01-15T11:49:57.000Z,5068
2023-01-15T11:51:12.000Z,4589
2023-01-15T11:52:27.000Z,5540
2023-01-15T11:53:43.000Z,3240
2023-01-15T11:55:00.000Z,6030
2023-01-15T11:56:15.000Z,6292
2023-01-15T11:57:30.000Z,5752
2023-01-15T11:58:46.000Z,4778
2023-01-15T12:00:03.000Z,4178
2023-01-15T12:01:19.000Z,4350
2023-01-15T12:02:35.000Z,6162
2023-01-15T12:03:51.000Z,4569
2023-01-15T12:05:08.000Z,3124
2023-01-15T12:06:24.000Z,2890
2023-01-15T12:07:40.000Z,2621
2023-01-15T12:08:56.000Z,2503
2023-01-15T12:10:12.000Z,1798
2023-01-15T12:11:29.000Z,2603
2023-01-15T12:12:45.000Z,4637
2023-01-15T12:14:00.000Z,3975
2023-01-15T12:15:16.000Z,2987
2023-01-15T12:16:33.000Z,3072
2023-01-15T12:17:49.000Z,2207
2023-01-15T12:19:05.000Z,2660
2023-01-15T12:20:21.000Z,3423
2023-01-15T12:21:38.000Z,3852
2023-01-15T12:22:53.000Z,3216
2023-01-15T12:24:08.000Z,1745
2023-01-15T12:25:24.000Z,3121
2023-01-15T12:26:41.000Z,3715
2023-01-15T12:27:57.000Z,2727
2023-01-15T12:29:13.000Z,2720
2023-01-15T12:30:29.000Z,2807
2023-01-15T12:31:45.000Z,2562
2023-01-15T12:33:02.000Z,2609
2023-01-15T12:34:18.000Z,1933
2023-01-15T12:35:34.000Z,2201
2023-01-15T12:36:50.000Z,2201
2023-01-15T12:38:07.000Z,1965
2023-01-15T12:39:23.000Z,2267
2023-01-15T12:40:38.000Z,1520
2023-01-15T12:41:54.000Z,1078
2023-01-15T12:43:11.000Z,1063
2023-01-15T12:44:27.000Z,1974
2023-01-15T12:45:43.000Z,3596
2023-01-15T12:46:59.000Z,5137
2023-01-15T12:48:16.000Z,6832
2023-01-15T12:49:31.000Z,5030
2023-01-15T12:50:46.000Z,3584
2023-01-15T12:52:02.000Z,2882
2023-01-15T12:53:19.000Z,3135
2023-01-15T12:54:35.000Z,2264
2023-01-15T12:55:51.000Z,3696
2023-01-15T12:57:07.000Z,5789
2023-01-15T12:58:23.000Z,6467
2023-01-15T12:59:40.000Z,5560
2023-01-15T13:00:56.000Z,3675
2023-01-15T13:02:12.000Z,3320
2023-01-15T13:03:28.000Z,5207
2023-01-15T13:04:45.000Z,4217
2023-01-15T13:06:01.000Z,3254
2023-01-15T13:07:16.000Z,3432
2023-01-15T13:08:32.000Z,1976
2023-01-15T13:09:49.000Z,3657
2023-01-15T13:11:05.000Z,2928
2023-01-15T13:12:21.000Z,2143
2023-01-15T13:13:37.000Z,1972
2023-01-15T13:14:54.000Z,2512
2023-01-15T13:16:09.000Z,2544
2023-01-15T13:17:24.000Z,1605
2023-01-15T13:18:39.000Z,1546
2023-01-15T13:19:55.000Z,3914
2023-01-15T13:21:10.000Z,3467
2023-01-15T13:22:25.000Z,4479
2023-01-15T13:23:41.000Z,3974
2023-01-15T13:24:58.000Z,4521
2023-01-15T13:26:14.000Z,5112
2023-01-15T13:27:30.000Z,4467
2023-01-15T13:28:46.000Z,5588
2023-01-15T13:30:02.000Z,3393
2023-01-15T13:31:19.000Z,4614
2023-01-15T13:32:35.000Z,4866
2023-01-15T13:33:51.000Z,4501
2023-01-15T13:35:07.000Z,4884
2023-01-15T13:36:24.000Z,4332
2023-01-15T13:37:40.000Z,3490
2023-01-15T13:38:55.000Z,3438
2023-01-15T13:40:11.000Z,3201
2023-01-15T13:41:28.000Z,1632
2023-01-15T13:42:44.000Z,2964
2023-01-15T13:44:00.000Z,2753
2023-01-15T13:45:16.000Z,1460
2023-01-15T13:46:33.000Z,2056
2023-01-15T13:47:48.000Z,1377
2023-01-15T13:49:03.000Z,1554
2023-01-15T13:50:18.000Z,1679
2023-01-15T13:51:34.000Z,1432
2023-01-15T13:52:50.000Z,2211
2023-01-15T13:54:06.000Z,2338
2023-01-15T13:55:22.000Z,2080
2023-01-15T13:56:38.000Z,2332
2023-01-15T13:57:55.000Z,1617
2023-01-15T13:59:11.000Z,2016
2023-01-15T14:00:27.000Z,1721
2023-01-15T14:01:43.000Z,3975
2023-01-15T14:03:00.000Z,2947
2023-01-15T14:04:16.000Z,2188
2023-01-15T14:05:32.000Z,1502
2023-01-15T14:06:48.000Z,917
2023-01-15T14:08:04.000Z,1067
2023-01-15T14:09:20.000Z,1949
2023-01-15T14:10:36.000Z,1514
2023-01-15T14:11:52.000Z,1159
2023-01-15T14:13:09.000Z,1435
2023-01-15T14:14:25.000Z,1177
2023-01-15T14:15:41.000Z,1424
2023-01-15T14:16:56.000Z,1843
2023-01-15T14:18:12.000Z,1397
2023-01-15T14:19:27.000Z,940
2023-01-15T14:20:42.000Z,2840
2023-01-15T14:21:58.000Z,2288
2023-01-15T14:23:15.000Z,3372
2023-01-15T14:24:31.000Z,3034
2023-01-15T14:25:47.000Z,2508
2023-01-15T14:27:03.000Z,2585
2023-01-15T14:28:19.000Z,2564
2023-01-15T14:29:36.000Z,1877
2023-01-15T14:30:52.000Z,1554
2023-01-15T14:32:08.000Z,2182
2023-01-15T14:33:24.000Z,1745
2023-01-15T14:34:41.000Z,1502
2023-01-15T14:35:57.000Z,1070
2023-01-15T14:37:12.000Z,622
2023-01-15T14:38:27.000Z,452
2023-01-15T14:39:44.000Z,882
2023-01-15T14:41:00.000Z,1139
2023-01-15T14:42:16.000Z,1312
2023-01-15T14:43:32.000Z,1189
2023-01-15T14:44:49.000Z,853
2023-01-15T14:46:04.000Z,916
2023-01-15T14:47:19.000Z,830
2023-01-15T14:48:35.000Z,510
2023-01-15T14:49:51.000Z,949
2023-01-15T14:51:06.000Z,1276
2023-01-15T14:52:22.000Z,1030
2023-01-15T14:53:38.000Z,770
2023-01-15T14:54:54.000Z,691
2023-01-15T14:56:11.000Z,693
2023-01-15T14:57:27.000Z,572
2023-01-15T14:58:43.000Z,441
2023-01-15T14:59:59.000Z,505
2023-01-15T15:01:16.000Z,468
2023-01-15T15:02:32.000Z,403
2023-01-15T15:03:48.000Z,401
2023-01-15T15:05:04.000Z,382
2023-01-15T15:06:21.000Z,320
2023-01-15T15:07:36.000Z,280
2023-01-15T15:08:52.000Z,242
2023-01-15T15:10:08.000Z,208
2023-01-15T15:11:25.000Z,169
2023-01-15T15:12:41.000Z,159
2023-01-15T15:13:57.000Z,153
2023-01-15T15:15:13.000Z,195
2023-01-15T15:16:29.000Z,328
2023-01-15T15:17:44.000Z,315
2023-01-15T15:19:00.000Z,236
2023-01-15T15:20:15.000Z,261
2023-01-15T15:21:31.000Z,290
2023-01-15T15:22:47.000Z,132
2023-01-15T15:24:03.000Z,299
2023-01-15T15:25:19.000Z,469
2023-01-15T15:26:35.000Z,414
2023-01-15T15:27:52.000Z,348
2023-01-15T15:29:08.000Z,216
2023-01-15T15:30:24.000Z,140
2023-01-15T15:31:40.000Z,166
2023-01-15T15:32:57.000Z,160
2023-01-15T15:34:13.000Z,249
2023-01-15T15:35:29.000Z,282
2023-01-15T15:36:45.000Z,209
2023-01-15T15:38:01.000Z,238
2023-01-15T15:39:17.000Z,158
2023-01-15T15:40:33.000Z,195
2023-01-15T15:41:49.000Z,98
2023-01-15T15:43:06.000Z,309
2023-01-15T15:44:22.000Z,153
2023-01-15T15:45:38.000Z,95
2023-01-15T15:46:53.000Z,99
2023-01-15T15:48:08.000Z,70
2023-01-15T15:49:25.000Z,49
2023-01-15T15:50:40.000Z,60
2023-01-15T15:51:55.000Z,53
2023-01-15T15:53:11.000Z,46
2023-01-15T15:54:28.000Z,35
2023-01-15T15:55:44.000Z,14
2023-01-15T15:57:00.000Z,220
2023-01-15T15:58:16.000Z,220
2023-01-15T15:59:33.000Z,212
2023-01-15T16:00:49.000Z,201
2023-01-15T16:02:05.000Z,194
2023-01-15T16:03:21.000Z,196
2023-01-15T16:04:38.000Z,193
2023-01-15T16:05:54.000Z,181
2023-01-15T16:07:10.000Z,186
2023-01-15T16:08:25.000Z,196
2023-01-15T16:09:42.000Z,191
2023-01-15T16:10:58.000Z,179
2023-01-15T16:12:14.000Z,184
2023-01-15T16:13:30.000Z,188
2023-01-15T16:14:46.000Z,189
2023-01-15T16:16:03.000Z,188
2023-01-15T16:17:18.000Z,186
2023-01-15T16:18:33.000Z,183
2023-01-15T16:19:49.000Z,174
2023-01-15T16:21:06.000Z,176
2023-01-15T16:22:21.000Z,175
2023-01-15T16:23:36.000Z,171
2023-01-15T16:24:52.000Z,174
2023-01-15T16:26:09.000Z,170
2023-01-15T16:27:25.000Z,169
2023-01-15T16:28:41.000Z,176
2023-01-15T16:29:57.000Z,176
2023-01-15T16:31:14.000Z,172
2023-01-15T16:32:30.000Z,173
2023-01-15T16:33:46.000Z,175
2023-01-15T16:35:02.000Z,178
2023-01-15T16:36:19.000Z,176
2023-01-15T16:37:35.000Z,177
2023-01-15T16:38:51.000Z,175
2023-01-15T16:40:06.000Z,177
2023-01-15T16:41:22.000Z,176
2023-01-15T16:42:39.000Z,175
2023-01-15T16:43:55.000Z,175
2023-01-15T16:45:11.000Z,178
2023-01-15T16:46:27.000Z,178
2023-01-15T16:47:44.000Z,178
2023-01-15T16:48:59.000Z,178
2023-01-15T16:50:14.000Z,177
2023-01-15T16:51:29.000Z,175
2023-01-15T16:52:45.000Z,174
2023-01-15T16:54:01.000Z,178
2023-01-15T16:55:17.000Z,178
2023-01-15T16:56:33.000Z,176
2023-01-15T16:57:50.000Z,171
2023-01-15T16:59:06.000Z,173
2023-01-15T17:00:22.000Z,175
2023-01-15T17:01:38.000Z,180
2023-01-15T17:02:55.000Z,176
2023-01-15T17:04:11.000Z,176
2023-01-15T17:05:27.000Z,176
2023-01-15T17:06:43.000Z,177
2023-01-15T17:07:59.000Z,176
2023-01-15T17:09:15.000Z,177
2023-01-15T17:10:31.000Z,176
2023-01-15T17:11:47.000Z,178
2023-01-15T17:13:03.000Z,185
2023-01-15T17:14:20.000Z,183